Draffenville, Kentucky
Current Conditions -  °F | °C
As of 2:35 AM on Thursday 27 Nov 2014 (Local Time) from KM25 Reporting Station
Overcast Overcast  
Wind Chill: 36°   Ceiling: 1400
Heat Index: 36°   Visibility: 10mi
Dew Point: 34°   Wind: 0mph
Humidity: 93%   Direction: NA
Pressure: 30.22"   Gusts: NA
Location:  36.8777°N, 88.361°W
Report Text: KM25 270835Z AUTO 00000KT 10SM OVC014 02/01 A3022 RMK AO2
Loading
Personal Weather Stations






























Interactive Weather Map New forecast layout! Learn more

10-Day Weather Forecast

Advertisements
Track Severe Weather on mobile